Погода Портанна 2 недели

Риу-Гранди-ду-Сул, Бразилия

08 - 21 февраля
  • 08февраля
    Сегодня
    +19°
    +35°
    Ясно и безоблачно
    ВремяПогодаТемператураВлажностьДавлениеВетер, м/сВероятность осадков
    00:00Ясно и безоблачно+22°C83 %746 мм2.3 м/с5 %
    03:00Ясно и безоблачно+21°C93 %746 мм1.0 м/с5 %
    06:00Ясно и безоблачно+19°C95 %746 мм1.3 м/с5 %
    09:00Ясно и безоблачно+26°C64 %747 мм0.9 м/с5 %
    12:00Ясно и безоблачно+31°C46 %746 мм0.9 м/с2 %
    15:00Ясно и безоблачно+34°C34 %744 мм2.1 м/с3 %
    18:00Практически безоблачно+32°C38 %743 мм3.7 м/с2 %
    21:00Ясно и безоблачно+27°C71 %745 мм3.5 м/с5 %
  • 09февраля
    Четверг
    +20°
    +34°
    Небольшая облачность
    ВремяПогодаТемператураВлажностьДавлениеВетер, м/сВероятность осадков
    00:00Ясно и безоблачно+22°C91 %746 мм1.3 м/с5 %
    03:00Облачно с прояснениями+21°C95 %745 мм1.4 м/с5 %
    06:00Облачно с прояснениями+20°C84 %745 мм2.1 м/с5 %
    09:00Облачно с прояснениями+27°C61 %746 мм1.4 м/с5 %
    12:00Облачно с прояснениями+31°C49 %746 мм1.2 м/с8 %
    15:00Небольшая облачность+33°C39 %745 мм3.2 м/с42 %
    18:00Небольшая облачность и лёгкий дождик+26°C67 %745 мм3.3 м/с57 %
    21:00Практически безоблачно+24°C86 %745 мм1.5 м/с9 %
  • 10февраля
    Пятница
    +20°
    +34°
    Небольшая облачность
    ВремяПогодаТемператураВлажностьДавлениеВетер, м/сВероятность осадков
    00:00Облачно с прояснениями+22°C88 %745 мм1.9 м/с4 %
    03:00Облачно с прояснениями+22°C84 %745 мм1.7 м/с5 %
    06:00Ясно и безоблачно+20°C88 %746 мм2.0 м/с5 %
    09:00Ясно и безоблачно+27°C61 %747 мм1.5 м/с5 %
    12:00Практически безоблачно+32°C44 %746 мм0.8 м/с5 %
    15:00Небольшая облачность+34°C38 %744 мм1.7 м/с11 %
    18:00Практически безоблачно+29°C53 %744 мм3.2 м/с27 %
    21:00Ясно и безоблачно+26°C75 %745 мм1.1 м/с9 %
  • 11февраля
    Суббота
    +19°
    +35°
    Ясно и безоблачно
    ВремяПогодаТемператураВлажностьДавлениеВетер, м/сВероятность осадков
    00:00Ясно и безоблачно+22°C88 %745 мм1.5 м/с5 %
    03:00Ясно и безоблачно+22°C87 %745 мм1.9 м/с5 %
    06:00Ясно и безоблачно+21°C83 %745 мм1.8 м/с5 %
    09:00Ясно и безоблачно+27°C60 %746 мм1.6 м/с5 %
    12:00Ясно и безоблачно+32°C40 %746 мм1.0 м/с5 %
    15:00Ясно и безоблачно+35°C29 %744 мм2.4 м/с5 %
    18:00Практически безоблачно+31°C45 %744 мм5.0 м/с5 %
    21:00Ясно и безоблачно+27°C67 %744 мм3.2 м/с5 %
  • 12февраля
    Воскресенье
    +22°
    +36°
    Облачно с прояснениями
    ВремяПогодаТемператураВлажностьДавлениеВетер, м/сВероятность осадков
    00:00Ясно и безоблачно+23°C85 %744 мм1.3 м/с5 %
    03:00Ясно и безоблачно+22°C92 %744 мм1.2 м/с5 %
    06:00Ясно и безоблачно+20°C93 %744 мм1.6 м/с5 %
    09:00Ясно и безоблачно+27°C59 %745 мм1.6 м/с5 %
    12:00Небольшая облачность+33°C39 %744 мм0.3 м/с5 %
    15:00Облачно с прояснениями+36°C29 %742 мм0.7 м/с5 %
    18:00Практически безоблачно+34°C38 %741 мм3.4 м/с5 %
    21:00Ясно и безоблачно+29°C64 %742 мм4.1 м/с5 %
Мы используем cookies
Соглашаюсь